createdAt,value
2023-10-08T00:01:44.013Z,9.40
2023-10-08T00:04:12.403Z,9.40
2023-10-08T00:06:40.433Z,9.40
2023-10-08T00:09:09.534Z,9.40
2023-10-08T00:11:38.865Z,9.40
2023-10-08T00:14:10.821Z,9.50
2023-10-08T00:16:40.996Z,9.50
2023-10-08T00:19:16.613Z,9.50
2023-10-08T00:21:46.546Z,9.40
2023-10-08T00:24:14.063Z,9.40
2023-10-08T00:26:42.239Z,9.40
2023-10-08T00:29:23.001Z,9.30
2023-10-08T00:31:51.237Z,9.30
2023-10-08T00:34:21.510Z,9.40
2023-10-08T00:36:50.773Z,9.40
2023-10-08T00:39:25.496Z,9.40
2023-10-08T00:42:01.060Z,9.40
2023-10-08T00:44:32.110Z,9.40
2023-10-08T00:47:02.675Z,9.40
2023-10-08T00:49:43.430Z,9.40
2023-10-08T00:52:13.002Z,9.30
2023-10-08T00:54:56.167Z,9.30
2023-10-08T00:57:29.968Z,9.30
2023-10-08T01:00:00.868Z,9.40
2023-10-08T01:02:38.232Z,9.30
2023-10-08T01:05:11.262Z,9.40
2023-10-08T01:07:43.973Z,9.40
2023-10-08T01:10:12.073Z,9.50
2023-10-08T01:12:51.403Z,9.40
2023-10-08T01:15:24.704Z,9.40
2023-10-08T01:17:59.826Z,9.40
2023-10-08T01:20:51.132Z,9.40
2023-10-08T01:23:22.986Z,9.50
2023-10-08T01:25:58.949Z,9.50
2023-10-08T01:28:32.582Z,9.50
2023-10-08T01:31:05.731Z,9.50
2023-10-08T01:33:39.853Z,9.50
2023-10-08T01:36:15.499Z,9.50
2023-10-08T01:38:43.993Z,9.50
2023-10-08T01:41:20.843Z,9.50
2023-10-08T01:43:51.225Z,9.50
2023-10-08T01:46:23.665Z,9.50
2023-10-08T01:49:01.494Z,9.40
2023-10-08T01:51:39.361Z,9.50
2023-10-08T01:54:13.099Z,9.50
2023-10-08T01:56:43.257Z,9.50
2023-10-08T01:59:15.579Z,9.50
2023-10-08T02:01:44.893Z,9.60
2023-10-08T02:04:16.805Z,9.50
2023-10-08T02:06:47.290Z,9.40
2023-10-08T02:09:16.880Z,9.40
2023-10-08T02:11:46.137Z,9.50
2023-10-08T02:14:16.672Z,9.50
2023-10-08T02:16:46.081Z,9.50
2023-10-08T02:19:16.700Z,9.60
2023-10-08T02:21:47.547Z,9.50
2023-10-08T02:24:15.719Z,9.50
2023-10-08T02:26:43.795Z,9.50
2023-10-08T02:29:14.763Z,9.50
2023-10-08T02:31:42.731Z,9.50
2023-10-08T02:34:13.520Z,9.60
2023-10-08T02:36:44.071Z,9.60
2023-10-08T02:39:22.964Z,9.50
2023-10-08T02:41:51.676Z,9.60
2023-10-08T02:44:22.132Z,9.60
2023-10-08T02:46:54.383Z,9.50
2023-10-08T02:49:24.192Z,9.60
2023-10-08T02:51:54.998Z,9.60
2023-10-08T02:54:34.002Z,9.70
2023-10-08T02:57:05.609Z,9.70
2023-10-08T02:59:41.867Z,9.80
2023-10-08T03:02:20.662Z,9.70
2023-10-08T03:04:52.686Z,9.70
2023-10-08T03:07:41.394Z,9.70
2023-10-08T03:10:19.195Z,9.70
2023-10-08T03:12:50.951Z,9.70
2023-10-08T03:15:30.688Z,9.70
2023-10-08T03:18:10.921Z,9.60
2023-10-08T03:20:40.141Z,9.60
2023-10-08T03:23:24.036Z,9.60
2023-10-08T03:26:00.754Z,9.70
2023-10-08T03:28:29.354Z,9.60
2023-10-08T03:31:05.471Z,9.50
2023-10-08T03:33:38.989Z,9.50
2023-10-08T03:36:29.160Z,9.40
2023-10-08T03:38:58.677Z,9.40
2023-10-08T03:41:36.873Z,9.30
2023-10-08T03:44:14.211Z,9.20
2023-10-08T03:46:48.194Z,9.20
2023-10-08T03:49:38.555Z,9.10
2023-10-08T03:52:08.612Z,9.10
2023-10-08T03:54:36.797Z,9.10
2023-10-08T03:57:15.396Z,9.00
2023-10-08T03:59:43.673Z,8.90
2023-10-08T04:02:15.779Z,8.90
2023-10-08T04:04:50.674Z,8.80
2023-10-08T04:07:26.427Z,8.80
2023-10-08T04:10:07.043Z,8.80
2023-10-08T04:12:36.396Z,8.80
2023-10-08T04:15:09.768Z,8.90
2023-10-08T04:17:50.633Z,8.90
2023-10-08T04:20:34.870Z,8.90
2023-10-08T04:23:05.808Z,8.80
2023-10-08T04:25:35.303Z,8.80
2023-10-08T04:28:03.068Z,8.80
2023-10-08T04:30:35.090Z,8.70
2023-10-08T04:33:09.558Z,8.70
2023-10-08T04:35:49.993Z,8.60
2023-10-08T04:38:26.232Z,8.60
2023-10-08T04:40:54.590Z,8.60
2023-10-08T04:43:29.111Z,8.50
2023-10-08T04:46:04.119Z,8.50
2023-10-08T04:48:34.650Z,8.40
2023-10-08T04:51:03.744Z,8.40
2023-10-08T04:53:37.608Z,8.40
2023-10-08T04:56:07.905Z,8.30
2023-10-08T04:58:41.938Z,8.30
2023-10-08T05:01:19.298Z,8.30
2023-10-08T05:03:58.788Z,8.30
2023-10-08T05:06:48.614Z,8.30
2023-10-08T05:09:22.755Z,8.20
2023-10-08T05:11:52.972Z,8.10
2023-10-08T05:14:36.246Z,8.10
2023-10-08T05:17:19.509Z,8.10
2023-10-08T05:19:59.425Z,8.10
2023-10-08T05:22:29.630Z,8.10
2023-10-08T05:25:17.280Z,8.00
2023-10-08T05:27:50.172Z,8.00
2023-10-08T05:30:26.532Z,7.90
2023-10-08T05:33:13.901Z,7.80
2023-10-08T05:35:43.309Z,7.70
2023-10-08T05:38:36.014Z,7.70
2023-10-08T05:41:04.637Z,7.70
2023-10-08T05:43:42.364Z,7.70
2023-10-08T05:46:43.473Z,7.60
2023-10-08T05:49:11.149Z,7.50
2023-10-08T05:52:06.438Z,7.50
2023-10-08T05:54:34.447Z,7.50
2023-10-08T05:57:16.340Z,7.50
2023-10-08T05:59:58.362Z,7.50
2023-10-08T06:02:33.967Z,7.40
2023-10-08T06:05:25.140Z,7.20
2023-10-08T06:07:57.199Z,6.90
2023-10-08T06:10:31.974Z,6.90
2023-10-08T06:13:21.753Z,6.80
2023-10-08T06:16:08.394Z,6.80
2023-10-08T06:18:36.418Z,6.80
2023-10-08T06:21:13.312Z,6.90
2023-10-08T06:23:43.701Z,6.90
2023-10-08T06:26:11.305Z,7.10
2023-10-08T06:28:40.808Z,7.10
2023-10-08T06:31:13.434Z,7.10
2023-10-08T06:33:43.120Z,7.10
2023-10-08T06:36:15.015Z,7.20
2023-10-08T06:38:50.366Z,7.00
2023-10-08T06:41:37.629Z,6.80
2023-10-08T06:44:16.290Z,6.80
2023-10-08T06:46:44.134Z,6.70
2023-10-08T06:49:14.246Z,6.60
2023-10-08T06:51:45.216Z,6.70
2023-10-08T06:54:15.860Z,6.70
2023-10-08T06:56:53.625Z,6.70
2023-10-08T06:59:25.003Z,6.60
2023-10-08T07:01:53.408Z,6.50
2023-10-08T07:04:24.194Z,6.50
2023-10-08T07:06:52.928Z,6.30
2023-10-08T07:09:24.239Z,6.40
2023-10-08T07:11:56.674Z,6.30
2023-10-08T07:14:28.659Z,6.30
2023-10-08T07:17:00.668Z,6.50
2023-10-08T07:19:39.817Z,6.50
2023-10-08T07:22:30.334Z,6.50
2023-10-08T07:24:58.852Z,6.40
2023-10-08T07:27:35.610Z,6.20
2023-10-08T07:30:11.581Z,6.30
2023-10-08T07:32:39.990Z,6.50
2023-10-08T07:35:27.278Z,6.40
2023-10-08T07:37:55.265Z,6.40
2023-10-08T07:40:29.014Z,6.50
2023-10-08T07:42:57.659Z,6.40
2023-10-08T07:45:25.676Z,6.50
2023-10-08T07:47:53.778Z,6.20
2023-10-08T07:50:21.731Z,6.00
2023-10-08T07:52:49.383Z,5.90
2023-10-08T07:55:19.681Z,6.10
2023-10-08T07:57:47.386Z,6.40
2023-10-08T08:00:24.968Z,6.20
2023-10-08T08:02:55.102Z,6.20
2023-10-08T08:05:23.394Z,6.20
2023-10-08T08:07:51.015Z,6.50
2023-10-08T08:10:20.182Z,6.40
2023-10-08T08:12:48.025Z,6.50
2023-10-08T08:15:22.590Z,6.90
2023-10-08T08:17:51.258Z,7.10
2023-10-08T08:20:19.495Z,7.50
2023-10-08T08:22:56.387Z,8.00
2023-10-08T08:25:35.678Z,8.20
2023-10-08T08:28:07.569Z,8.20
2023-10-08T08:30:38.196Z,8.50
2023-10-08T08:33:12.492Z,8.60
2023-10-08T08:35:41.212Z,8.70
2023-10-08T08:38:10.351Z,8.80
2023-10-08T08:40:50.244Z,9.00
2023-10-08T08:43:18.864Z,9.10
2023-10-08T08:45:51.075Z,9.10
2023-10-08T08:48:20.269Z,9.10
2023-10-08T08:50:50.254Z,9.20
2023-10-08T08:53:19.721Z,9.20
2023-10-08T08:55:50.484Z,9.20
2023-10-08T08:58:19.472Z,9.20
2023-10-08T09:00:51.327Z,9.30
2023-10-08T09:03:23.147Z,9.40
2023-10-08T09:05:52.293Z,9.50
2023-10-08T09:08:21.494Z,9.60
2023-10-08T09:10:57.504Z,9.70
2023-10-08T09:13:26.008Z,9.70
2023-10-08T09:15:58.538Z,9.60
2023-10-08T09:18:30.243Z,9.70
2023-10-08T09:20:59.143Z,9.80
2023-10-08T09:23:27.377Z,9.90
2023-10-08T09:26:04.139Z,9.90
2023-10-08T09:28:37.851Z,9.80
2023-10-08T09:31:08.539Z,9.90
2023-10-08T09:33:36.205Z,10.00
2023-10-08T09:36:08.562Z,10.00
2023-10-08T09:38:36.710Z,9.90
2023-10-08T09:41:10.147Z,9.80
2023-10-08T09:43:41.449Z,9.80
2023-10-08T09:46:14.445Z,9.90
2023-10-08T09:48:48.541Z,9.90
2023-10-08T09:51:17.369Z,10.00
2023-10-08T09:54:15.460Z,10.10
2023-10-08T09:56:45.603Z,10.10
2023-10-08T09:59:16.408Z,10.00
2023-10-08T10:01:45.952Z,10.10
2023-10-08T10:04:14.646Z,10.30
2023-10-08T10:06:45.963Z,10.30
2023-10-08T10:09:23.483Z,10.20
2023-10-08T10:11:53.381Z,10.20
2023-10-08T10:14:26.670Z,10.30
2023-10-08T10:17:43.622Z,10.40
2023-10-08T10:20:15.934Z,10.50
2023-10-08T10:22:47.765Z,10.50
2023-10-08T10:25:21.028Z,10.50
2023-10-08T10:27:52.396Z,10.50
2023-10-08T10:30:23.642Z,10.50
2023-10-08T10:33:12.853Z,10.60
2023-10-08T10:35:41.647Z,10.60
2023-10-08T10:38:10.856Z,10.50
2023-10-08T10:40:40.538Z,10.60
2023-10-08T10:43:11.176Z,10.70
2023-10-08T10:45:44.070Z,10.70
2023-10-08T10:48:14.618Z,10.60
2023-10-08T10:51:01.316Z,10.70
2023-10-08T10:53:31.071Z,10.70
2023-10-08T10:56:11.244Z,10.70
2023-10-08T10:58:43.016Z,10.80
2023-10-08T11:01:25.186Z,10.80
2023-10-08T11:03:54.661Z,10.80
2023-10-08T11:06:26.875Z,10.80
2023-10-08T11:08:57.955Z,11.00
2023-10-08T11:11:30.704Z,11.00
2023-10-08T11:14:02.106Z,11.10
2023-10-08T11:16:33.274Z,11.00
2023-10-08T11:19:08.248Z,11.10
2023-10-08T11:21:58.528Z,11.10
2023-10-08T11:24:34.918Z,11.10
2023-10-08T11:27:19.153Z,11.10
2023-10-08T11:29:58.182Z,11.00
2023-10-08T11:32:27.612Z,11.10
2023-10-08T11:35:02.342Z,11.20
2023-10-08T11:37:35.143Z,11.30
2023-10-08T11:40:14.421Z,11.20
2023-10-08T11:42:45.554Z,11.10
2023-10-08T11:45:20.331Z,11.20
2023-10-08T11:47:51.117Z,11.20
2023-10-08T11:50:20.932Z,11.30
2023-10-08T11:52:48.448Z,11.40
2023-10-08T11:55:27.777Z,11.20
2023-10-08T11:57:55.688Z,11.20
2023-10-08T12:00:32.554Z,11.10
2023-10-08T12:03:03.489Z,11.10
2023-10-08T12:05:36.115Z,11.10
2023-10-08T12:08:04.641Z,11.20
2023-10-08T12:10:35.727Z,11.40
2023-10-08T12:13:07.266Z,11.40
2023-10-08T12:15:39.989Z,11.20
2023-10-08T12:18:17.055Z,11.40
2023-10-08T12:20:48.980Z,11.30
2023-10-08T12:23:30.410Z,11.30
2023-10-08T12:25:58.638Z,11.40
2023-10-08T12:28:29.137Z,11.30
2023-10-08T12:30:58.537Z,11.20
2023-10-08T12:33:27.656Z,11.40
2023-10-08T12:35:57.194Z,11.50
2023-10-08T12:38:26.747Z,11.50
2023-10-08T12:40:55.817Z,11.70
2023-10-08T12:43:28.620Z,11.70
2023-10-08T12:45:58.267Z,11.70
2023-10-08T12:48:30.102Z,11.70
2023-10-08T12:50:58.392Z,11.50
2023-10-08T12:53:28.696Z,11.60
2023-10-08T12:55:57.956Z,11.50
2023-10-08T12:58:31.352Z,11.60
2023-10-08T13:01:04.886Z,11.60
2023-10-08T13:03:43.893Z,11.60
2023-10-08T13:06:17.169Z,11.60
2023-10-08T13:08:45.076Z,11.60
2023-10-08T13:11:15.412Z,11.50
2023-10-08T13:13:43.110Z,11.50
2023-10-08T13:16:12.041Z,11.60
2023-10-08T13:18:44.813Z,11.70
2023-10-08T13:21:13.128Z,11.90
2023-10-08T13:23:42.991Z,12.00
2023-10-08T13:26:18.293Z,11.70
2023-10-08T13:28:46.161Z,11.70
2023-10-08T13:31:14.564Z,11.70
2023-10-08T13:33:51.217Z,11.50
2023-10-08T13:36:20.010Z,11.30
2023-10-08T13:38:48.787Z,11.30
2023-10-08T13:41:21.196Z,11.10
2023-10-08T13:44:00.789Z,11.10
2023-10-08T13:46:28.754Z,11.10
2023-10-08T13:48:59.262Z,11.20
2023-10-08T13:51:27.274Z,11.40
2023-10-08T13:54:00.819Z,11.40
2023-10-08T13:56:34.067Z,11.50
2023-10-08T13:59:07.344Z,11.60
2023-10-08T14:01:36.016Z,11.70
2023-10-08T14:04:09.237Z,11.90
2023-10-08T14:06:39.387Z,11.90
2023-10-08T14:09:14.642Z,11.80
2023-10-08T14:11:42.648Z,11.70
2023-10-08T14:14:13.020Z,11.50
2023-10-08T14:16:43.441Z,11.50
2023-10-08T14:19:18.651Z,11.40
2023-10-08T14:22:07.549Z,11.40
2023-10-08T14:24:39.324Z,11.40
2023-10-08T14:27:11.538Z,11.40
2023-10-08T14:29:41.980Z,11.30
2023-10-08T14:32:10.103Z,11.30
2023-10-08T14:34:44.846Z,11.30
2023-10-08T14:37:35.555Z,11.30
2023-10-08T14:40:21.971Z,11.30
2023-10-08T14:43:05.162Z,11.30
2023-10-08T14:45:37.441Z,11.20
2023-10-08T14:48:13.328Z,11.10
2023-10-08T14:50:43.920Z,11.10
2023-10-08T14:53:12.411Z,11.00
2023-10-08T14:55:42.290Z,10.90
2023-10-08T14:58:10.984Z,10.80
2023-10-08T15:00:40.693Z,10.80
2023-10-08T15:03:13.185Z,10.70
2023-10-08T15:05:41.823Z,10.70
2023-10-08T15:08:12.138Z,10.70
2023-10-08T15:10:43.263Z,10.70
2023-10-08T15:13:12.963Z,10.70
2023-10-08T15:15:42.086Z,10.60
2023-10-08T15:18:14.151Z,10.60
2023-10-08T15:20:43.163Z,10.60
2023-10-08T15:23:14.429Z,10.60
2023-10-08T15:25:43.186Z,10.60
2023-10-08T15:28:12.664Z,10.50
2023-10-08T15:30:41.314Z,10.40
2023-10-08T15:33:09.845Z,10.40
2023-10-08T15:35:39.214Z,10.30
2023-10-08T15:38:07.499Z,10.20
2023-10-08T15:40:35.142Z,10.20
2023-10-08T15:43:05.576Z,10.10
2023-10-08T15:45:33.375Z,10.00
2023-10-08T15:48:03.382Z,9.90
2023-10-08T15:50:34.335Z,9.80
2023-10-08T15:53:02.760Z,9.80
2023-10-08T15:55:30.432Z,9.70
2023-10-08T15:57:58.778Z,9.60
2023-10-08T16:00:28.400Z,9.60
2023-10-08T16:02:57.477Z,9.50
2023-10-08T16:05:25.181Z,9.40
2023-10-08T16:07:53.804Z,9.30
2023-10-08T16:10:22.795Z,9.20
2023-10-08T16:12:51.999Z,9.20
2023-10-08T16:15:20.899Z,9.10
2023-10-08T16:17:53.488Z,9.10
2023-10-08T16:20:25.188Z,9.00
2023-10-08T16:22:54.263Z,9.00
2023-10-08T16:25:22.452Z,8.90
2023-10-08T16:27:52.472Z,8.80
2023-10-08T16:30:27.464Z,8.70
2023-10-08T16:32:57.505Z,8.70
2023-10-08T16:35:28.768Z,8.60
2023-10-08T16:37:58.396Z,8.50
2023-10-08T16:40:26.927Z,8.40
2023-10-08T16:42:56.816Z,8.40
2023-10-08T16:45:24.753Z,8.40
2023-10-08T16:47:55.333Z,8.30
2023-10-08T16:50:23.334Z,8.20
2023-10-08T16:52:53.151Z,8.10
2023-10-08T16:55:20.806Z,8.10
2023-10-08T16:57:50.939Z,8.10
2023-10-08T17:00:19.311Z,8.00
2023-10-08T17:02:53.572Z,8.00
2023-10-08T17:05:21.389Z,7.90
2023-10-08T17:07:49.737Z,7.80
2023-10-08T17:10:17.274Z,7.80
2023-10-08T17:12:44.813Z,7.80
2023-10-08T17:15:14.554Z,7.70
2023-10-08T17:17:45.615Z,7.70
2023-10-08T17:20:18.338Z,7.70
2023-10-08T17:22:50.764Z,7.60
2023-10-08T17:25:18.528Z,7.50
2023-10-08T17:27:46.806Z,7.50
2023-10-08T17:30:20.986Z,7.40
2023-10-08T17:32:51.103Z,7.40
2023-10-08T17:35:19.549Z,7.30
2023-10-08T17:37:48.179Z,7.30
2023-10-08T17:40:16.274Z,7.30
2023-10-08T17:42:44.452Z,7.30
2023-10-08T17:45:16.198Z,7.20
2023-10-08T17:47:45.100Z,7.20
2023-10-08T17:50:13.125Z,7.20
2023-10-08T17:52:43.436Z,7.20
2023-10-08T17:55:14.468Z,7.10
2023-10-08T17:57:43.032Z,7.10
2023-10-08T18:00:12.467Z,7.10
2023-10-08T18:02:44.722Z,7.00
2023-10-08T18:05:20.502Z,7.00
2023-10-08T18:07:53.162Z,7.00
2023-10-08T18:10:21.948Z,6.90
2023-10-08T18:12:52.004Z,6.80
2023-10-08T18:15:20.605Z,6.80
2023-10-08T18:17:50.625Z,6.70
2023-10-08T18:20:21.616Z,6.70
2023-10-08T18:22:53.529Z,6.70
2023-10-08T18:25:22.263Z,6.60
2023-10-08T18:27:50.571Z,6.60
2023-10-08T18:30:19.220Z,6.60
2023-10-08T18:32:48.023Z,6.60
2023-10-08T18:35:16.125Z,6.50
2023-10-08T18:37:45.524Z,6.50
2023-10-08T18:40:16.471Z,6.40
2023-10-08T18:42:46.971Z,6.40
2023-10-08T18:45:18.159Z,6.40
2023-10-08T18:47:47.049Z,6.30
2023-10-08T18:50:16.559Z,6.30
2023-10-08T18:52:47.771Z,6.20
2023-10-08T18:55:16.923Z,6.30
2023-10-08T18:57:47.275Z,6.30
2023-10-08T19:00:15.223Z,6.30
2023-10-08T19:02:44.066Z,6.30
2023-10-08T19:05:13.289Z,6.30
2023-10-08T19:07:43.241Z,6.30
2023-10-08T19:10:16.906Z,6.20
2023-10-08T19:12:45.434Z,6.20
2023-10-08T19:15:18.123Z,6.20
2023-10-08T19:17:47.720Z,6.10
2023-10-08T19:20:18.326Z,6.10
2023-10-08T19:22:48.888Z,6.10
2023-10-08T19:25:18.467Z,6.00
2023-10-08T19:27:46.783Z,6.00
2023-10-08T19:30:14.677Z,5.90
2023-10-08T19:32:45.487Z,5.70
2023-10-08T19:35:13.463Z,5.60
2023-10-08T19:37:41.961Z,5.50
2023-10-08T19:40:11.804Z,5.40
2023-10-08T19:42:46.381Z,5.30
2023-10-08T19:45:19.345Z,5.20
2023-10-08T19:47:47.767Z,5.10
2023-10-08T19:50:16.774Z,5.10
2023-10-08T19:52:45.930Z,5.00
2023-10-08T19:55:15.669Z,5.00
2023-10-08T19:57:44.323Z,5.00
2023-10-08T20:00:15.749Z,4.90
2023-10-08T20:02:46.198Z,4.80
2023-10-08T20:05:15.776Z,4.70
2023-10-08T20:07:46.013Z,4.70
2023-10-08T20:10:17.964Z,4.60
2023-10-08T20:12:48.612Z,4.60
2023-10-08T20:15:20.286Z,4.50
2023-10-08T20:17:50.018Z,4.40
2023-10-08T20:20:21.321Z,4.40
2023-10-08T20:22:53.204Z,4.30
2023-10-08T20:25:22.892Z,4.30
2023-10-08T20:27:51.640Z,4.20
2023-10-08T20:30:21.119Z,4.20
2023-10-08T20:32:50.557Z,4.20
2023-10-08T20:35:22.291Z,4.10
2023-10-08T20:37:53.780Z,4.10
2023-10-08T20:40:30.695Z,4.00
2023-10-08T20:42:59.174Z,3.90
2023-10-08T20:45:29.894Z,3.80
2023-10-08T20:48:00.167Z,3.70
2023-10-08T20:50:33.681Z,3.70
2023-10-08T20:53:03.473Z,3.60
2023-10-08T20:55:35.988Z,3.60
2023-10-08T20:58:08.899Z,3.50
2023-10-08T21:00:39.393Z,3.50
2023-10-08T21:03:09.775Z,3.50
2023-10-08T21:05:40.699Z,3.50
2023-10-08T21:08:10.094Z,3.40
2023-10-08T21:13:14.802Z,3.30
2023-10-08T21:15:46.207Z,3.30
2023-10-08T21:18:14.819Z,3.20
2023-10-08T21:20:49.389Z,3.20
2023-10-08T21:23:18.946Z,3.20
2023-10-08T21:25:49.876Z,3.10
2023-10-08T21:28:20.125Z,3.10
2023-10-08T21:30:50.317Z,3.10
2023-10-08T21:33:19.706Z,3.00
2023-10-08T21:35:47.683Z,3.00
2023-10-08T21:38:17.234Z,3.00
2023-10-08T21:40:47.093Z,2.90
2023-10-08T21:43:14.935Z,2.90
2023-10-08T21:45:43.936Z,2.90
2023-10-08T21:48:12.242Z,2.90
2023-10-08T21:50:39.815Z,2.90
2023-10-08T21:53:08.781Z,3.00
2023-10-08T21:55:37.073Z,2.90
2023-10-08T21:58:12.880Z,2.90
2023-10-08T22:00:46.476Z,2.90
2023-10-08T22:03:17.764Z,2.80
2023-10-08T22:05:46.250Z,2.80
2023-10-08T22:08:17.356Z,2.70
2023-10-08T22:10:46.154Z,2.80
2023-10-08T22:13:33.309Z,2.70
2023-10-08T22:16:15.437Z,2.70
2023-10-08T22:18:52.525Z,2.70
2023-10-08T22:21:20.639Z,2.60
2023-10-08T22:23:49.315Z,2.60
2023-10-08T22:26:17.756Z,2.60
2023-10-08T22:28:46.529Z,2.60
2023-10-08T22:31:16.936Z,2.50
2023-10-08T22:33:49.440Z,2.60
2023-10-08T22:36:21.134Z,2.60
2023-10-08T22:38:52.023Z,2.50
2023-10-08T22:41:24.084Z,2.50
2023-10-08T22:43:56.126Z,2.40
2023-10-08T22:46:26.731Z,2.40
2023-10-08T22:49:05.376Z,2.30
2023-10-08T22:51:38.062Z,2.30
2023-10-08T22:54:09.423Z,2.30
2023-10-08T22:56:37.261Z,2.30
2023-10-08T22:59:09.410Z,2.30
2023-10-08T23:01:40.222Z,2.30
2023-10-08T23:04:11.102Z,2.30
2023-10-08T23:06:41.849Z,2.30
2023-10-08T23:09:15.683Z,2.40
2023-10-08T23:11:49.226Z,2.40
2023-10-08T23:14:20.301Z,2.40
2023-10-08T23:16:51.105Z,2.40
2023-10-08T23:19:23.120Z,2.40
2023-10-08T23:21:53.629Z,2.40
2023-10-08T23:24:23.390Z,2.50
2023-10-08T23:26:52.183Z,2.50
2023-10-08T23:29:21.357Z,2.60
2023-10-08T23:31:50.407Z,2.60
2023-10-08T23:34:18.902Z,2.70
2023-10-08T23:36:53.133Z,2.70
2023-10-08T23:39:27.303Z,2.70
2023-10-08T23:42:02.939Z,2.80
2023-10-08T23:44:35.287Z,2.80
2023-10-08T23:47:04.581Z,2.80
2023-10-08T23:49:37.892Z,2.90
2023-10-08T23:52:10.540Z,2.90
2023-10-08T23:54:44.952Z,2.90
2023-10-08T23:57:32.344Z,2.90
